sensor_id;sensor_type;location;lat;lon;timestamp;temperature;humidity
75786;DHT22;64402;44.708;37.644;2024-02-16T00:01:11;7.34;72.70
75786;DHT22;64402;44.708;37.644;2024-02-16T00:03:39;7.30;72.65
75786;DHT22;64402;44.708;37.644;2024-02-16T00:06:06;7.29;72.75
75786;DHT22;64402;44.708;37.644;2024-02-16T00:08:33;7.30;72.88
75786;DHT22;64402;44.708;37.644;2024-02-16T00:11:00;7.34;73.11
75786;DHT22;64402;44.708;37.644;2024-02-16T00:13:27;7.34;72.33
75786;DHT22;64402;44.708;37.644;2024-02-16T00:15:53;7.29;72.59
75786;DHT22;64402;44.708;37.644;2024-02-16T00:18:19;7.27;72.40
75786;DHT22;64402;44.708;37.644;2024-02-16T00:20:46;7.26;72.78
75786;DHT22;64402;44.708;37.644;2024-02-16T00:23:12;7.27;72.74
75786;DHT22;64402;44.708;37.644;2024-02-16T00:25:39;7.31;72.32
75786;DHT22;64402;44.708;37.644;2024-02-16T00:28:07;7.30;72.40
75786;DHT22;64402;44.708;37.644;2024-02-16T00:30:33;7.29;72.06
75786;DHT22;64402;44.708;37.644;2024-02-16T00:33:00;7.30;72.17
75786;DHT22;64402;44.708;37.644;2024-02-16T00:35:27;7.25;71.72
75786;DHT22;64402;44.708;37.644;2024-02-16T00:37:53;7.29;72.27
75786;DHT22;64402;44.708;37.644;2024-02-16T00:40:19;7.29;71.88
75786;DHT22;64402;44.708;37.644;2024-02-16T00:42:46;7.31;71.85
75786;DHT22;64402;44.708;37.644;2024-02-16T00:45:12;7.33;71.96
75786;DHT22;64402;44.708;37.644;2024-02-16T00:47:39;7.34;71.56
75786;DHT22;64402;44.708;37.644;2024-02-16T00:50:06;7.29;71.64
75786;DHT22;64402;44.708;37.644;2024-02-16T00:52:34;7.33;71.66
75786;DHT22;64402;44.708;37.644;2024-02-16T00:55:01;7.30;71.63
75786;DHT22;64402;44.708;37.644;2024-02-16T00:57:27;7.30;71.81
75786;DHT22;64402;44.708;37.644;2024-02-16T00:59:54;7.27;72.00
75786;DHT22;64402;44.708;37.644;2024-02-16T01:02:20;7.27;71.90
75786;DHT22;64402;44.708;37.644;2024-02-16T01:04:48;7.25;71.74
75786;DHT22;64402;44.708;37.644;2024-02-16T01:07:16;7.25;71.84
75786;DHT22;64402;44.708;37.644;2024-02-16T01:09:43;7.19;71.64
75786;DHT22;64402;44.708;37.644;2024-02-16T01:12:09;7.18;72.36
75786;DHT22;64402;44.708;37.644;2024-02-16T01:14:37;7.20;71.95
75786;DHT22;64402;44.708;37.644;2024-02-16T01:17:03;7.26;71.90
75786;DHT22;64402;44.708;37.644;2024-02-16T01:19:29;7.22;71.60
75786;DHT22;64402;44.708;37.644;2024-02-16T01:21:56;7.22;71.52
75786;DHT22;64402;44.708;37.644;2024-02-16T01:24:24;7.22;71.72
75786;DHT22;64402;44.708;37.644;2024-02-16T01:26:50;7.23;71.96
75786;DHT22;64402;44.708;37.644;2024-02-16T01:29:17;7.20;71.52
75786;DHT22;64402;44.708;37.644;2024-02-16T01:31:43;7.13;71.64
75786;DHT22;64402;44.708;37.644;2024-02-16T01:34:09;7.08;71.63
75786;DHT22;64402;44.708;37.644;2024-02-16T01:36:36;7.07;71.82
75786;DHT22;64402;44.708;37.644;2024-02-16T01:39:03;7.07;72.07
75786;DHT22;64402;44.708;37.644;2024-02-16T01:41:29;7.07;71.73
75786;DHT22;64402;44.708;37.644;2024-02-16T01:43:55;7.04;71.58
75786;DHT22;64402;44.708;37.644;2024-02-16T01:46:22;7.08;71.62
75786;DHT22;64402;44.708;37.644;2024-02-16T01:48:49;7.08;71.31
75786;DHT22;64402;44.708;37.644;2024-02-16T01:51:16;7.10;71.54
75786;DHT22;64402;44.708;37.644;2024-02-16T01:53:43;7.10;71.29
75786;DHT22;64402;44.708;37.644;2024-02-16T01:56:09;7.11;71.51
75786;DHT22;64402;44.708;37.644;2024-02-16T01:58:36;7.17;71.28
75786;DHT22;64402;44.708;37.644;2024-02-16T02:01:03;7.22;71.39
75786;DHT22;64402;44.708;37.644;2024-02-16T02:03:30;7.18;70.88
75786;DHT22;64402;44.708;37.644;2024-02-16T02:05:57;7.16;71.04
75786;DHT22;64402;44.708;37.644;2024-02-16T02:08:24;7.14;70.83
75786;DHT22;64402;44.708;37.644;2024-02-16T02:10:52;7.17;70.72
75786;DHT22;64402;44.708;37.644;2024-02-16T02:13:18;7.16;70.64
75786;DHT22;64402;44.708;37.644;2024-02-16T02:15:45;7.15;70.96
75786;DHT22;64402;44.708;37.644;2024-02-16T02:18:12;7.15;70.61
75786;DHT22;64402;44.708;37.644;2024-02-16T02:20:38;7.12;71.09
75786;DHT22;64402;44.708;37.644;2024-02-16T02:23:05;7.15;70.60
75786;DHT22;64402;44.708;37.644;2024-02-16T02:25:31;7.18;70.95
75786;DHT22;64402;44.708;37.644;2024-02-16T02:27:58;7.17;70.58
75786;DHT22;64402;44.708;37.644;2024-02-16T02:30:24;7.23;70.21
75786;DHT22;64402;44.708;37.644;2024-02-16T02:32:51;7.23;70.55
75786;DHT22;64402;44.708;37.644;2024-02-16T02:35:18;7.19;70.07
75786;DHT22;64402;44.708;37.644;2024-02-16T02:37:44;7.16;70.37
75786;DHT22;64402;44.708;37.644;2024-02-16T02:40:11;7.16;70.52
75786;DHT22;64402;44.708;37.644;2024-02-16T02:42:38;7.17;70.32
75786;DHT22;64402;44.708;37.644;2024-02-16T02:45:05;7.18;70.26
75786;DHT22;64402;44.708;37.644;2024-02-16T02:47:31;7.13;70.10
75786;DHT22;64402;44.708;37.644;2024-02-16T02:49:58;7.13;70.45
75786;DHT22;64402;44.708;37.644;2024-02-16T02:52:26;7.12;70.13
75786;DHT22;64402;44.708;37.644;2024-02-16T02:54:52;7.04;70.07
75786;DHT22;64402;44.708;37.644;2024-02-16T02:57:18;7.03;70.34
75786;DHT22;64402;44.708;37.644;2024-02-16T02:59:45;6.97;70.15
75786;DHT22;64402;44.708;37.644;2024-02-16T03:02:11;6.93;70.56
75786;DHT22;64402;44.708;37.644;2024-02-16T03:04:38;6.88;70.62
75786;DHT22;64402;44.708;37.644;2024-02-16T03:07:04;6.90;70.67
75786;DHT22;64402;44.708;37.644;2024-02-16T03:09:30;6.89;70.32
75786;DHT22;64402;44.708;37.644;2024-02-16T03:11:57;6.88;70.66
75786;DHT22;64402;44.708;37.644;2024-02-16T03:14:23;6.87;69.98
75786;DHT22;64402;44.708;37.644;2024-02-16T03:16:50;6.86;70.32
75786;DHT22;64402;44.708;37.644;2024-02-16T03:19:16;6.83;70.39
75786;DHT22;64402;44.708;37.644;2024-02-16T03:21:42;6.81;70.48
75786;DHT22;64402;44.708;37.644;2024-02-16T03:24:10;6.80;70.64
75786;DHT22;64402;44.708;37.644;2024-02-16T03:26:36;6.82;70.87
75786;DHT22;64402;44.708;37.644;2024-02-16T03:29:02;6.82;70.84
75786;DHT22;64402;44.708;37.644;2024-02-16T03:31:29;6.81;70.92
75786;DHT22;64402;44.708;37.644;2024-02-16T03:33:56;6.80;70.97
75786;DHT22;64402;44.708;37.644;2024-02-16T03:36:22;6.74;70.55
75786;DHT22;64402;44.708;37.644;2024-02-16T03:38:48;6.72;70.96
75786;DHT22;64402;44.708;37.644;2024-02-16T03:41:19;6.69;70.84
75786;DHT22;64402;44.708;37.644;2024-02-16T03:43:46;6.69;70.96
75786;DHT22;64402;44.708;37.644;2024-02-16T03:46:12;6.71;71.06
75786;DHT22;64402;44.708;37.644;2024-02-16T03:48:39;6.76;70.74
75786;DHT22;64402;44.708;37.644;2024-02-16T03:51:08;6.75;70.45
75786;DHT22;64402;44.708;37.644;2024-02-16T03:53:34;6.76;70.81
75786;DHT22;64402;44.708;37.644;2024-02-16T03:56:01;6.76;69.91
75786;DHT22;64402;44.708;37.644;2024-02-16T03:58:27;6.79;70.52
75786;DHT22;64402;44.708;37.644;2024-02-16T04:00:54;6.79;69.97
75786;DHT22;64402;44.708;37.644;2024-02-16T04:03:20;6.83;70.21
75786;DHT22;64402;44.708;37.644;2024-02-16T04:05:47;6.84;70.28
75786;DHT22;64402;44.708;37.644;2024-02-16T04:08:14;6.85;69.64
75786;DHT22;64402;44.708;37.644;2024-02-16T04:10:40;6.83;69.39
75786;DHT22;64402;44.708;37.644;2024-02-16T04:13:06;6.81;69.83
75786;DHT22;64402;44.708;37.644;2024-02-16T04:15:33;6.80;69.83
75786;DHT22;64402;44.708;37.644;2024-02-16T04:17:59;6.79;69.60
75786;DHT22;64402;44.708;37.644;2024-02-16T04:20:26;6.79;70.10
75786;DHT22;64402;44.708;37.644;2024-02-16T04:22:52;6.81;70.87
75786;DHT22;64402;44.708;37.644;2024-02-16T04:25:18;6.83;72.11
75786;DHT22;64402;44.708;37.644;2024-02-16T04:27:45;6.85;73.11
75786;DHT22;64402;44.708;37.644;2024-02-16T04:30:13;6.81;74.56
75786;DHT22;64402;44.708;37.644;2024-02-16T04:32:39;6.73;75.46
75786;DHT22;64402;44.708;37.644;2024-02-16T04:35:06;6.68;76.26
75786;DHT22;64402;44.708;37.644;2024-02-16T04:37:32;6.60;76.34
75786;DHT22;64402;44.708;37.644;2024-02-16T04:39:59;6.54;76.65
75786;DHT22;64402;44.708;37.644;2024-02-16T04:42:25;6.52;77.35
75786;DHT22;64402;44.708;37.644;2024-02-16T04:44:51;6.46;76.72
75786;DHT22;64402;44.708;37.644;2024-02-16T04:47:18;6.42;76.92
75786;DHT22;64402;44.708;37.644;2024-02-16T04:49:44;6.39;77.50
75786;DHT22;64402;44.708;37.644;2024-02-16T04:52:11;6.37;77.60
75786;DHT22;64402;44.708;37.644;2024-02-16T04:54:37;6.31;77.30
75786;DHT22;64402;44.708;37.644;2024-02-16T04:57:06;6.33;78.15
75786;DHT22;64402;44.708;37.644;2024-02-16T04:59:33;6.30;77.64
75786;DHT22;64402;44.708;37.644;2024-02-16T05:01:59;6.28;77.40
75786;DHT22;64402;44.708;37.644;2024-02-16T05:04:26;6.25;77.03
75786;DHT22;64402;44.708;37.644;2024-02-16T05:06:52;6.22;76.98
75786;DHT22;64402;44.708;37.644;2024-02-16T05:09:23;6.19;76.92
75786;DHT22;64402;44.708;37.644;2024-02-16T05:11:52;6.16;76.37
75786;DHT22;64402;44.708;37.644;2024-02-16T05:14:18;6.19;76.26
75786;DHT22;64402;44.708;37.644;2024-02-16T05:16:45;6.16;75.99
75786;DHT22;64402;44.708;37.644;2024-02-16T05:19:12;6.20;76.12
75786;DHT22;64402;44.708;37.644;2024-02-16T05:21:38;6.24;76.12
75786;DHT22;64402;44.708;37.644;2024-02-16T05:24:05;6.28;75.79
75786;DHT22;64402;44.708;37.644;2024-02-16T05:26:32;6.28;75.37
75786;DHT22;64402;44.708;37.644;2024-02-16T05:28:59;6.34;75.36
75786;DHT22;64402;44.708;37.644;2024-02-16T05:31:26;6.37;75.09
75786;DHT22;64402;44.708;37.644;2024-02-16T05:33:52;6.36;75.18
75786;DHT22;64402;44.708;37.644;2024-02-16T05:36:22;6.33;75.34
75786;DHT22;64402;44.708;37.644;2024-02-16T05:38:53;6.34;75.86
75786;DHT22;64402;44.708;37.644;2024-02-16T05:41:22;6.31;76.15
75786;DHT22;64402;44.708;37.644;2024-02-16T05:43:48;6.31;77.25
75786;DHT22;64402;44.708;37.644;2024-02-16T05:46:15;6.35;76.51
75786;DHT22;64402;44.708;37.644;2024-02-16T05:48:42;6.33;76.23
75786;DHT22;64402;44.708;37.644;2024-02-16T05:51:09;6.30;75.89
75786;DHT22;64402;44.708;37.644;2024-02-16T05:53:38;6.28;75.97
75786;DHT22;64402;44.708;37.644;2024-02-16T05:56:06;6.25;75.65
75786;DHT22;64402;44.708;37.644;2024-02-16T05:58:33;6.25;76.41
75786;DHT22;64402;44.708;37.644;2024-02-16T06:01:01;6.28;76.24
75786;DHT22;64402;44.708;37.644;2024-02-16T06:03:27;6.26;75.85
75786;DHT22;64402;44.708;37.644;2024-02-16T06:05:54;6.29;75.96
75786;DHT22;64402;44.708;37.644;2024-02-16T06:08:20;6.29;76.14
75786;DHT22;64402;44.708;37.644;2024-02-16T06:10:47;6.29;75.84
75786;DHT22;64402;44.708;37.644;2024-02-16T06:13:20;6.30;75.83
75786;DHT22;64402;44.708;37.644;2024-02-16T06:15:48;6.29;75.50
75786;DHT22;64402;44.708;37.644;2024-02-16T06:18:14;6.33;75.41
75786;DHT22;64402;44.708;37.644;2024-02-16T06:20:41;6.34;75.49
75786;DHT22;64402;44.708;37.644;2024-02-16T06:23:07;6.36;75.14
75786;DHT22;64402;44.708;37.644;2024-02-16T06:25:35;6.36;74.86
75786;DHT22;64402;44.708;37.644;2024-02-16T06:28:01;6.35;74.64
75786;DHT22;64402;44.708;37.644;2024-02-16T06:30:28;6.33;75.17
75786;DHT22;64402;44.708;37.644;2024-02-16T06:32:55;6.31;74.75
75786;DHT22;64402;44.708;37.644;2024-02-16T06:35:21;6.33;74.81
75786;DHT22;64402;44.708;37.644;2024-02-16T06:37:48;6.31;74.72
75786;DHT22;64402;44.708;37.644;2024-02-16T06:40:14;6.30;74.30
75786;DHT22;64402;44.708;37.644;2024-02-16T06:42:41;6.34;74.35
75786;DHT22;64402;44.708;37.644;2024-02-16T06:45:08;6.33;74.25
75786;DHT22;64402;44.708;37.644;2024-02-16T06:47:34;6.30;74.27
75786;DHT22;64402;44.708;37.644;2024-02-16T06:50:00;6.31;74.28
75786;DHT22;64402;44.708;37.644;2024-02-16T06:52:27;6.28;74.46
75786;DHT22;64402;44.708;37.644;2024-02-16T06:54:54;6.29;74.35
75786;DHT22;64402;44.708;37.644;2024-02-16T06:57:21;6.30;74.40
75786;DHT22;64402;44.708;37.644;2024-02-16T06:59:47;6.28;74.25
75786;DHT22;64402;44.708;37.644;2024-02-16T07:02:14;6.35;74.99
75786;DHT22;64402;44.708;37.644;2024-02-16T07:04:40;6.41;74.51
75786;DHT22;64402;44.708;37.644;2024-02-16T07:07:07;6.40;73.76
75786;DHT22;64402;44.708;37.644;2024-02-16T07:09:34;6.42;74.10
75786;DHT22;64402;44.708;37.644;2024-02-16T07:12:01;6.45;74.23
75786;DHT22;64402;44.708;37.644;2024-02-16T07:14:28;6.49;74.54
75786;DHT22;64402;44.708;37.644;2024-02-16T07:16:55;6.50;74.29
75786;DHT22;64402;44.708;37.644;2024-02-16T07:19:21;6.53;74.21
75786;DHT22;64402;44.708;37.644;2024-02-16T07:21:48;6.57;74.35
75786;DHT22;64402;44.708;37.644;2024-02-16T07:24:14;6.60;74.35
75786;DHT22;64402;44.708;37.644;2024-02-16T07:26:41;6.54;73.96
75786;DHT22;64402;44.708;37.644;2024-02-16T07:29:08;6.48;74.06
75786;DHT22;64402;44.708;37.644;2024-02-16T07:31:34;6.44;73.87
75786;DHT22;64402;44.708;37.644;2024-02-16T07:34:01;6.38;74.12
75786;DHT22;64402;44.708;37.644;2024-02-16T07:36:29;6.35;74.12
75786;DHT22;64402;44.708;37.644;2024-02-16T07:38:55;6.37;74.21
75786;DHT22;64402;44.708;37.644;2024-02-16T07:41:22;6.41;74.06
75786;DHT22;64402;44.708;37.644;2024-02-16T07:43:48;6.46;73.29
75786;DHT22;64402;44.708;37.644;2024-02-16T07:46:14;6.49;73.22
75786;DHT22;64402;44.708;37.644;2024-02-16T07:48:41;6.52;73.06
75786;DHT22;64402;44.708;37.644;2024-02-16T07:51:07;6.56;72.94
75786;DHT22;64402;44.708;37.644;2024-02-16T07:53:34;6.58;72.63
75786;DHT22;64402;44.708;37.644;2024-02-16T07:56:00;6.52;72.25
75786;DHT22;64402;44.708;37.644;2024-02-16T07:58:26;6.51;72.22
75786;DHT22;64402;44.708;37.644;2024-02-16T08:00:53;6.50;72.48
75786;DHT22;64402;44.708;37.644;2024-02-16T08:03:21;6.44;72.19
75786;DHT22;64402;44.708;37.644;2024-02-16T08:05:47;6.38;72.52
75786;DHT22;64402;44.708;37.644;2024-02-16T08:08:14;6.43;72.86
75786;DHT22;64402;44.708;37.644;2024-02-16T08:10:40;6.48;72.69
75786;DHT22;64402;44.708;37.644;2024-02-16T08:13:07;6.54;72.07
75786;DHT22;64402;44.708;37.644;2024-02-16T08:15:33;6.51;71.74
75786;DHT22;64402;44.708;37.644;2024-02-16T08:18:00;6.48;71.96
75786;DHT22;64402;44.708;37.644;2024-02-16T08:20:26;6.45;71.78
75786;DHT22;64402;44.708;37.644;2024-02-16T08:22:52;6.48;71.96
75786;DHT22;64402;44.708;37.644;2024-02-16T08:25:19;6.49;72.13
75786;DHT22;64402;44.708;37.644;2024-02-16T08:27:46;6.48;71.81
75786;DHT22;64402;44.708;37.644;2024-02-16T08:30:12;6.41;71.53
75786;DHT22;64402;44.708;37.644;2024-02-16T08:32:39;6.40;71.38
75786;DHT22;64402;44.708;37.644;2024-02-16T08:35:06;6.42;71.64
75786;DHT22;64402;44.708;37.644;2024-02-16T08:37:32;6.43;71.58
75786;DHT22;64402;44.708;37.644;2024-02-16T08:39:59;6.44;71.74
75786;DHT22;64402;44.708;37.644;2024-02-16T08:42:26;6.46;71.77
75786;DHT22;64402;44.708;37.644;2024-02-16T08:44:52;6.53;71.38
75786;DHT22;64402;44.708;37.644;2024-02-16T08:47:19;6.55;71.14
75786;DHT22;64402;44.708;37.644;2024-02-16T08:49:46;6.63;71.03
75786;DHT22;64402;44.708;37.644;2024-02-16T08:52:12;6.58;70.61
75786;DHT22;64402;44.708;37.644;2024-02-16T08:54:39;6.58;70.28
75786;DHT22;64402;44.708;37.644;2024-02-16T08:57:06;6.60;70.56
75786;DHT22;64402;44.708;37.644;2024-02-16T08:59:32;6.59;70.48
75786;DHT22;64402;44.708;37.644;2024-02-16T09:02:00;6.55;70.51
75786;DHT22;64402;44.708;37.644;2024-02-16T09:04:26;6.58;70.86
75786;DHT22;64402;44.708;37.644;2024-02-16T09:06:53;6.56;70.80
75786;DHT22;64402;44.708;37.644;2024-02-16T09:09:20;6.54;70.94
75786;DHT22;64402;44.708;37.644;2024-02-16T09:11:47;6.56;71.14
75786;DHT22;64402;44.708;37.644;2024-02-16T09:14:13;6.56;71.20
75786;DHT22;64402;44.708;37.644;2024-02-16T09:16:40;6.57;71.99
75786;DHT22;64402;44.708;37.644;2024-02-16T09:19:06;6.58;71.38
75786;DHT22;64402;44.708;37.644;2024-02-16T09:21:33;6.56;72.05
75786;DHT22;64402;44.708;37.644;2024-02-16T09:24:00;6.56;71.76
75786;DHT22;64402;44.708;37.644;2024-02-16T09:26:27;6.56;71.64
75786;DHT22;64402;44.708;37.644;2024-02-16T09:28:57;6.60;72.06
75786;DHT22;64402;44.708;37.644;2024-02-16T09:31:24;6.66;71.92
75786;DHT22;64402;44.708;37.644;2024-02-16T09:33:51;6.73;71.73
75786;DHT22;64402;44.708;37.644;2024-02-16T09:36:18;6.75;70.93
75786;DHT22;64402;44.708;37.644;2024-02-16T09:38:44;6.78;70.84
75786;DHT22;64402;44.708;37.644;2024-02-16T09:41:13;6.85;70.44
75786;DHT22;64402;44.708;37.644;2024-02-16T09:43:39;6.96;70.45
75786;DHT22;64402;44.708;37.644;2024-02-16T09:46:06;7.04;70.20
75786;DHT22;64402;44.708;37.644;2024-02-16T09:48:35;7.11;70.00
75786;DHT22;64402;44.708;37.644;2024-02-16T09:51:02;7.15;70.07
75786;DHT22;64402;44.708;37.644;2024-02-16T09:53:29;7.23;69.39
75786;DHT22;64402;44.708;37.644;2024-02-16T09:55:56;7.19;69.00
75786;DHT22;64402;44.708;37.644;2024-02-16T09:58:22;7.19;69.15
75786;DHT22;64402;44.708;37.644;2024-02-16T10:00:54;7.23;68.53
75786;DHT22;64402;44.708;37.644;2024-02-16T10:03:29;7.23;68.56
75786;DHT22;64402;44.708;37.644;2024-02-16T10:06:10;7.29;68.63
75786;DHT22;64402;44.708;37.644;2024-02-16T10:08:54;7.29;68.31
75786;DHT22;64402;44.708;37.644;2024-02-16T10:11:26;7.33;67.97
75786;DHT22;64402;44.708;37.644;2024-02-16T10:13:57;7.31;67.82
75786;DHT22;64402;44.708;37.644;2024-02-16T10:16:24;7.29;67.79
75786;DHT22;64402;44.708;37.644;2024-02-16T10:18:51;7.31;68.19
75786;DHT22;64402;44.708;37.644;2024-02-16T10:21:27;7.42;67.35
75786;DHT22;64402;44.708;37.644;2024-02-16T10:24:01;7.47;67.06
75786;DHT22;64402;44.708;37.644;2024-02-16T10:26:31;7.48;67.35
75786;DHT22;64402;44.708;37.644;2024-02-16T10:28:58;7.52;67.26
75786;DHT22;64402;44.708;37.644;2024-02-16T10:31:25;7.57;66.96
75786;DHT22;64402;44.708;37.644;2024-02-16T10:34:03;7.61;66.98
75786;DHT22;64402;44.708;37.644;2024-02-16T10:36:37;7.62;67.19
75786;DHT22;64402;44.708;37.644;2024-02-16T10:39:05;7.67;67.00
75786;DHT22;64402;44.708;37.644;2024-02-16T10:41:36;7.74;66.57
75786;DHT22;64402;44.708;37.644;2024-02-16T10:44:04;7.83;66.67
75786;DHT22;64402;44.708;37.644;2024-02-16T10:46:32;7.89;66.56
75786;DHT22;64402;44.708;37.644;2024-02-16T10:48:59;7.93;66.39
75786;DHT22;64402;44.708;37.644;2024-02-16T10:51:47;8.01;66.17
75786;DHT22;64402;44.708;37.644;2024-02-16T10:54:17;8.05;65.84
75786;DHT22;64402;44.708;37.644;2024-02-16T10:56:45;8.14;65.90
75786;DHT22;64402;44.708;37.644;2024-02-16T10:59:11;8.23;65.69
75786;DHT22;64402;44.708;37.644;2024-02-16T11:01:39;8.35;65.91
75786;DHT22;64402;44.708;37.644;2024-02-16T11:04:06;8.45;65.04
75786;DHT22;64402;44.708;37.644;2024-02-16T11:06:54;8.52;65.22
75786;DHT22;64402;44.708;37.644;2024-02-16T11:09:28;8.62;64.93
75786;DHT22;64402;44.708;37.644;2024-02-16T11:11:59;8.67;64.39
75786;DHT22;64402;44.708;37.644;2024-02-16T11:14:39;8.80;64.82
75786;DHT22;64402;44.708;37.644;2024-02-16T11:17:10;8.85;64.13
75786;DHT22;64402;44.708;37.644;2024-02-16T11:19:40;8.88;64.47
75786;DHT22;64402;44.708;37.644;2024-02-16T11:22:07;8.96;64.26
75786;DHT22;64402;44.708;37.644;2024-02-16T11:24:36;8.98;64.01
75786;DHT22;64402;44.708;37.644;2024-02-16T11:27:02;9.01;63.92
75786;DHT22;64402;44.708;37.644;2024-02-16T11:29:34;9.05;63.34
75786;DHT22;64402;44.708;37.644;2024-02-16T11:32:02;9.10;63.70
75786;DHT22;64402;44.708;37.644;2024-02-16T11:34:29;9.17;63.56
75786;DHT22;64402;44.708;37.644;2024-02-16T11:36:56;9.35;63.05
75786;DHT22;64402;44.708;37.644;2024-02-16T11:39:27;9.49;62.95
75786;DHT22;64402;44.708;37.644;2024-02-16T11:42:19;9.57;61.63
75786;DHT22;64402;44.708;37.644;2024-02-16T11:44:53;9.60;62.09
75786;DHT22;64402;44.708;37.644;2024-02-16T11:47:22;9.67;62.25
75786;DHT22;64402;44.708;37.644;2024-02-16T11:50:09;9.77;62.00
75786;DHT22;64402;44.708;37.644;2024-02-16T11:52:39;9.79;61.86
75786;DHT22;64402;44.708;37.644;2024-02-16T11:55:10;9.83;62.65
75786;DHT22;64402;44.708;37.644;2024-02-16T11:57:39;9.89;61.60
75786;DHT22;64402;44.708;37.644;2024-02-16T12:00:06;9.93;62.11
75786;DHT22;64402;44.708;37.644;2024-02-16T12:02:41;9.96;62.05
75786;DHT22;64402;44.708;37.644;2024-02-16T12:05:08;9.99;61.79
75786;DHT22;64402;44.708;37.644;2024-02-16T12:07:38;10.03;62.28
75786;DHT22;64402;44.708;37.644;2024-02-16T12:10:06;10.15;62.13
75786;DHT22;64402;44.708;37.644;2024-02-16T12:12:33;10.23;61.28
75786;DHT22;64402;44.708;37.644;2024-02-16T12:15:01;10.29;61.09
75786;DHT22;64402;44.708;37.644;2024-02-16T12:17:27;10.36;61.50
75786;DHT22;64402;44.708;37.644;2024-02-16T12:19:54;10.39;60.86
75786;DHT22;64402;44.708;37.644;2024-02-16T12:22:21;10.37;60.60
75786;DHT22;64402;44.708;37.644;2024-02-16T12:24:50;10.33;61.48
75786;DHT22;64402;44.708;37.644;2024-02-16T12:27:17;10.35;60.31
75786;DHT22;64402;44.708;37.644;2024-02-16T12:29:44;10.34;59.70
75786;DHT22;64402;44.708;37.644;2024-02-16T12:32:10;10.24;59.97
75786;DHT22;64402;44.708;37.644;2024-02-16T12:34:37;10.27;60.30
75786;DHT22;64402;44.708;37.644;2024-02-16T12:37:07;10.23;59.85
75786;DHT22;64402;44.708;37.644;2024-02-16T12:39:34;10.23;60.10
75786;DHT22;64402;44.708;37.644;2024-02-16T12:42:00;10.20;60.37
75786;DHT22;64402;44.708;37.644;2024-02-16T12:44:27;10.14;60.07
75786;DHT22;64402;44.708;37.644;2024-02-16T12:46:54;10.07;60.18
75786;DHT22;64402;44.708;37.644;2024-02-16T12:49:20;9.98;59.56
75786;DHT22;64402;44.708;37.644;2024-02-16T12:51:49;9.95;60.02
75786;DHT22;64402;44.708;37.644;2024-02-16T12:54:16;9.91;60.35
75786;DHT22;64402;44.708;37.644;2024-02-16T12:56:48;9.89;60.42
75786;DHT22;64402;44.708;37.644;2024-02-16T12:59:15;9.97;60.83
75786;DHT22;64402;44.708;37.644;2024-02-16T13:01:42;10.05;59.56
75786;DHT22;64402;44.708;37.644;2024-02-16T13:04:09;10.08;59.55
75786;DHT22;64402;44.708;37.644;2024-02-16T13:06:36;10.01;59.31
75786;DHT22;64402;44.708;37.644;2024-02-16T13:09:03;10.05;58.99
75786;DHT22;64402;44.708;37.644;2024-02-16T13:11:31;10.10;59.14
75786;DHT22;64402;44.708;37.644;2024-02-16T13:14:00;10.12;58.73
75786;DHT22;64402;44.708;37.644;2024-02-16T13:16:27;10.43;57.94
75786;DHT22;64402;44.708;37.644;2024-02-16T13:18:54;10.68;56.74
75786;DHT22;64402;44.708;37.644;2024-02-16T13:21:21;10.59;56.67
75786;DHT22;64402;44.708;37.644;2024-02-16T13:23:47;10.54;57.06
75786;DHT22;64402;44.708;37.644;2024-02-16T13:26:14;10.54;57.24
75786;DHT22;64402;44.708;37.644;2024-02-16T13:28:40;10.29;57.56
75786;DHT22;64402;44.708;37.644;2024-02-16T13:31:07;10.12;58.55
75786;DHT22;64402;44.708;37.644;2024-02-16T13:33:35;9.96;58.51
75786;DHT22;64402;44.708;37.644;2024-02-16T13:36:02;9.77;59.79
75786;DHT22;64402;44.708;37.644;2024-02-16T13:38:29;9.69;60.31
75786;DHT22;64402;44.708;37.644;2024-02-16T13:40:56;9.63;60.51
75786;DHT22;64402;44.708;37.644;2024-02-16T13:43:22;9.51;60.43
75786;DHT22;64402;44.708;37.644;2024-02-16T13:45:53;9.45;60.82
75786;DHT22;64402;44.708;37.644;2024-02-16T13:48:20;9.38;60.89
75786;DHT22;64402;44.708;37.644;2024-02-16T13:50:47;9.37;60.94
75786;DHT22;64402;44.708;37.644;2024-02-16T13:53:14;9.39;60.76
75786;DHT22;64402;44.708;37.644;2024-02-16T13:55:42;9.22;60.83
75786;DHT22;64402;44.708;37.644;2024-02-16T13:58:13;9.14;61.64
75786;DHT22;64402;44.708;37.644;2024-02-16T14:00:39;9.03;62.02
75786;DHT22;64402;44.708;37.644;2024-02-16T14:03:08;8.93;62.77
75786;DHT22;64402;44.708;37.644;2024-02-16T14:05:38;8.82;62.42
75786;DHT22;64402;44.708;37.644;2024-02-16T14:08:05;8.65;62.56
75786;DHT22;64402;44.708;37.644;2024-02-16T14:10:32;8.62;63.08
75786;DHT22;64402;44.708;37.644;2024-02-16T14:12:59;8.55;63.21
75786;DHT22;64402;44.708;37.644;2024-02-16T14:15:25;8.44;63.39
75786;DHT22;64402;44.708;37.644;2024-02-16T14:17:52;8.39;63.47
75786;DHT22;64402;44.708;37.644;2024-02-16T14:20:19;8.34;63.28
75786;DHT22;64402;44.708;37.644;2024-02-16T14:22:48;8.28;63.86
75786;DHT22;64402;44.708;37.644;2024-02-16T14:25:15;8.28;64.09
75786;DHT22;64402;44.708;37.644;2024-02-16T14:27:41;8.23;64.34
75786;DHT22;64402;44.708;37.644;2024-02-16T14:30:08;8.20;64.56
75786;DHT22;64402;44.708;37.644;2024-02-16T14:32:35;8.20;64.64
75786;DHT22;64402;44.708;37.644;2024-02-16T14:35:02;8.14;64.69
75786;DHT22;64402;44.708;37.644;2024-02-16T14:37:29;8.14;65.32
75786;DHT22;64402;44.708;37.644;2024-02-16T14:39:55;8.12;65.11
75786;DHT22;64402;44.708;37.644;2024-02-16T14:42:24;8.08;65.13
75786;DHT22;64402;44.708;37.644;2024-02-16T14:44:51;8.06;64.72
75786;DHT22;64402;44.708;37.644;2024-02-16T14:47:18;7.99;64.98
75786;DHT22;64402;44.708;37.644;2024-02-16T14:49:44;7.92;65.14
75786;DHT22;64402;44.708;37.644;2024-02-16T14:52:11;7.90;64.95
75786;DHT22;64402;44.708;37.644;2024-02-16T14:54:38;7.89;65.67
75786;DHT22;64402;44.708;37.644;2024-02-16T14:57:06;7.82;65.60
75786;DHT22;64402;44.708;37.644;2024-02-16T14:59:32;7.73;65.33
75786;DHT22;64402;44.708;37.644;2024-02-16T15:01:59;7.73;65.55
75786;DHT22;64402;44.708;37.644;2024-02-16T15:04:27;7.62;66.01
75786;DHT22;64402;44.708;37.644;2024-02-16T15:06:54;7.60;66.39
75786;DHT22;64402;44.708;37.644;2024-02-16T15:09:20;7.58;66.45
75786;DHT22;64402;44.708;37.644;2024-02-16T15:11:47;7.58;66.11
75786;DHT22;64402;44.708;37.644;2024-02-16T15:14:13;7.58;66.19
75786;DHT22;64402;44.708;37.644;2024-02-16T15:16:40;7.53;66.35
75786;DHT22;64402;44.708;37.644;2024-02-16T15:19:07;7.46;66.32
75786;DHT22;64402;44.708;37.644;2024-02-16T15:21:33;7.49;66.95
75786;DHT22;64402;44.708;37.644;2024-02-16T15:24:00;7.53;66.53
75786;DHT22;64402;44.708;37.644;2024-02-16T15:26:27;7.50;66.36
75786;DHT22;64402;44.708;37.644;2024-02-16T15:28:53;7.49;66.31
75786;DHT22;64402;44.708;37.644;2024-02-16T15:31:20;7.47;66.56